createdAt,value
2023-03-03T00:02:22.212Z,21.13
2023-03-03T00:04:54.897Z,23.57
2023-03-03T00:07:25.138Z,22.47
2023-03-03T00:09:55.341Z,25.47
2023-03-03T00:12:28.568Z,23.07
2023-03-03T00:14:58.791Z,21.67
2023-03-03T00:17:30.530Z,22.63
2023-03-03T00:20:05.856Z,23.07
2023-03-03T00:22:40.380Z,24.77
2023-03-03T00:25:31.081Z,20.53
2023-03-03T00:28:10.624Z,24.27
2023-03-03T00:30:40.839Z,23.17
2023-03-03T00:33:24.585Z,20.40
2023-03-03T00:35:57.629Z,20.98
2023-03-03T00:38:27.897Z,23.53
2023-03-03T00:40:58.065Z,23.17
2023-03-03T00:43:31.351Z,22.07
2023-03-03T00:46:02.092Z,24.60
2023-03-03T00:48:34.293Z,21.97
2023-03-03T00:51:21.911Z,21.90
2023-03-03T00:53:52.628Z,20.70
2023-03-03T00:56:22.778Z,20.37
2023-03-03T00:58:53.149Z,20.43
2023-03-03T01:01:25.869Z,22.67
2023-03-03T01:03:57.449Z,21.27
2023-03-03T01:06:30.928Z,22.37
2023-03-03T01:09:01.200Z,21.97
2023-03-03T01:11:31.366Z,23.57
2023-03-03T01:14:01.698Z,21.40
2023-03-03T01:16:32.782Z,23.00
2023-03-03T01:19:03.161Z,23.63
2023-03-03T01:21:35.640Z,30.03
2023-03-03T01:24:06.117Z,20.07
2023-03-03T01:26:36.029Z,20.13
2023-03-03T01:29:05.937Z,25.43
2023-03-03T01:31:36.508Z,20.97
2023-03-03T01:34:07.291Z,22.17
2023-03-03T01:36:39.835Z,26.40
2023-03-03T01:39:10.230Z,20.33
2023-03-03T01:41:40.445Z,25.60
2023-03-03T01:44:11.062Z,20.40
2023-03-03T01:46:50.837Z,22.90
2023-03-03T01:49:24.302Z,21.90
2023-03-03T01:52:00.409Z,16.57
2023-03-03T01:54:36.112Z,20.17
2023-03-03T01:57:09.688Z,22.10
2023-03-03T01:59:43.290Z,24.10
2023-03-03T02:02:13.798Z,21.98
2023-03-03T02:04:44.556Z,23.83
2023-03-03T02:07:18.877Z,24.40
2023-03-03T02:12:38.496Z,22.73
2023-03-03T02:15:20.054Z,16.83
2023-03-03T02:17:52.361Z,21.93
2023-03-03T02:20:35.104Z,22.17
2023-03-03T02:23:12.774Z,22.47
2023-03-03T02:25:50.699Z,20.60
2023-03-03T02:28:23.915Z,21.30
2023-03-03T02:30:54.400Z,21.00
2023-03-03T02:33:24.849Z,24.97
2023-03-03T02:35:55.851Z,20.93
2023-03-03T02:38:29.784Z,22.40
2023-03-03T02:41:06.115Z,18.30
2023-03-03T02:43:42.071Z,22.60
2023-03-03T02:46:13.768Z,22.50
2023-03-03T02:48:44.021Z,20.20
2023-03-03T02:51:14.260Z,17.87
2023-03-03T02:53:44.684Z,22.73
2023-03-03T02:56:15.582Z,23.53
2023-03-03T02:58:48.514Z,19.90
2023-03-03T03:01:18.980Z,19.13
2023-03-03T03:03:49.568Z,21.43
2023-03-03T03:06:24.226Z,25.80
2023-03-03T03:08:55.601Z,18.87
2023-03-03T03:11:26.034Z,19.70
2023-03-03T03:13:58.768Z,18.83
2023-03-03T03:16:29.231Z,21.70
2023-03-03T03:18:59.533Z,21.23
2023-03-03T03:21:30.920Z,20.27
2023-03-03T03:24:02.221Z,20.33
2023-03-03T03:26:33.162Z,23.33
2023-03-03T03:29:06.275Z,19.20
2023-03-03T03:31:36.615Z,21.20
2023-03-03T03:34:07.161Z,22.93
2023-03-03T03:36:39.972Z,18.87
2023-03-03T03:39:10.993Z,17.77
2023-03-03T03:41:45.331Z,17.02
2023-03-03T03:44:18.231Z,16.60
2023-03-03T03:46:48.609Z,20.50
2023-03-03T03:49:20.925Z,17.27
2023-03-03T03:51:52.626Z,22.98
2023-03-03T03:54:26.865Z,12.63
2023-03-03T03:56:57.510Z,19.63
2023-03-03T03:59:30.568Z,24.57
2023-03-03T04:02:01.062Z,21.00
2023-03-03T04:04:31.476Z,20.07
2023-03-03T04:07:02.262Z,22.47
2023-03-03T04:09:33.505Z,23.30
2023-03-03T04:12:04.331Z,17.87
2023-03-03T04:14:37.435Z,21.63
2023-03-03T04:17:08.207Z,21.93
2023-03-03T04:19:38.478Z,20.23
2023-03-03T04:22:09.583Z,21.50
2023-03-03T04:24:39.947Z,16.53
2023-03-03T04:27:11.747Z,17.77
2023-03-03T04:29:44.703Z,15.93
2023-03-03T04:32:15.595Z,12.37
2023-03-03T04:34:48.931Z,21.93
2023-03-03T04:37:21.326Z,22.67
2023-03-03T04:39:51.627Z,20.47
2023-03-03T04:42:21.907Z,16.23
2023-03-03T04:44:54.996Z,20.87
2023-03-03T04:47:25.988Z,21.80
2023-03-03T04:49:56.632Z,20.60
2023-03-03T04:52:27.262Z,17.20
2023-03-03T04:54:57.541Z,23.83
2023-03-03T04:57:28.362Z,17.13
2023-03-03T05:00:01.484Z,20.80
2023-03-03T05:02:31.858Z,21.73
2023-03-03T05:05:02.291Z,23.93
2023-03-03T05:07:32.565Z,22.30
2023-03-03T05:10:02.765Z,21.90
2023-03-03T05:12:33.012Z,19.37
2023-03-03T05:15:05.836Z,20.83
2023-03-03T05:17:36.054Z,22.43
2023-03-03T05:20:10.770Z,23.07
2023-03-03T05:22:40.988Z,24.03
2023-03-03T05:25:13.359Z,26.77
2023-03-03T05:27:43.887Z,19.37
2023-03-03T05:30:17.239Z,26.40
2023-03-03T05:32:47.761Z,36.17
2023-03-03T05:35:18.054Z,26.23
2023-03-03T05:37:49.840Z,28.53
2023-03-03T05:40:20.454Z,26.57
2023-03-03T05:42:50.756Z,29.23
2023-03-03T05:45:24.452Z,30.63
2023-03-03T05:47:54.745Z,30.30
2023-03-03T05:50:25.805Z,26.93
2023-03-03T05:52:56.955Z,26.73
2023-03-03T05:55:27.250Z,23.60
2023-03-03T05:57:58.206Z,21.00
2023-03-03T06:00:30.777Z,24.07
2023-03-03T06:03:01.084Z,23.20
2023-03-03T06:05:31.298Z,30.77
2023-03-03T06:08:01.591Z,26.93
2023-03-03T06:10:31.775Z,24.83
2023-03-03T06:13:06.236Z,30.38
2023-03-03T06:15:39.335Z,28.17
2023-03-03T06:18:09.650Z,22.13
2023-03-03T06:20:40.056Z,34.27
2023-03-03T06:23:10.288Z,32.83
2023-03-03T06:25:42.111Z,34.23
2023-03-03T06:28:13.504Z,32.47
2023-03-03T06:30:46.021Z,26.17
2023-03-03T06:33:16.232Z,31.63
2023-03-03T06:35:46.430Z,31.67
2023-03-03T06:38:16.635Z,33.30
2023-03-03T06:40:46.852Z,32.43
2023-03-03T06:43:17.440Z,26.57
2023-03-03T06:45:51.045Z,30.60
2023-03-03T06:48:21.445Z,27.25
2023-03-03T06:50:51.773Z,29.17
2023-03-03T06:53:22.291Z,27.07
2023-03-03T06:55:52.572Z,24.87
2023-03-03T06:58:24.343Z,25.53
2023-03-03T07:00:59.917Z,25.33
2023-03-03T07:03:35.498Z,25.20
2023-03-03T07:06:17.460Z,25.30
2023-03-03T07:08:47.859Z,25.10
2023-03-03T07:11:20.860Z,24.37
2023-03-03T07:13:52.806Z,30.83
2023-03-03T07:16:29.777Z,42.60
2023-03-03T07:19:03.639Z,42.10
2023-03-03T07:21:36.402Z,34.90
2023-03-03T07:24:22.006Z,43.17
2023-03-03T07:26:52.470Z,44.10
2023-03-03T07:29:27.057Z,36.07
2023-03-03T07:32:00.880Z,37.07
2023-03-03T07:34:41.004Z,31.98
2023-03-03T07:37:20.194Z,35.23
2023-03-03T07:39:50.971Z,51.03
2023-03-03T07:42:30.604Z,37.80
2023-03-03T07:45:27.624Z,41.30
2023-03-03T07:48:11.049Z,33.23
2023-03-03T07:50:41.448Z,40.33
2023-03-03T07:53:18.004Z,39.67
2023-03-03T07:55:48.471Z,40.33
2023-03-03T07:58:25.253Z,36.93
2023-03-03T08:01:31.023Z,40.93
2023-03-03T08:04:04.512Z,40.60
2023-03-03T08:06:41.950Z,36.50
2023-03-03T08:09:47.892Z,35.17
2023-03-03T08:12:31.689Z,40.60
2023-03-03T08:15:21.746Z,39.83
2023-03-03T08:17:52.297Z,42.87
2023-03-03T08:20:52.585Z,43.70
2023-03-03T08:23:23.314Z,48.63
2023-03-03T08:25:54.553Z,33.87
2023-03-03T08:28:25.093Z,34.47
2023-03-03T08:31:08.848Z,41.17
2023-03-03T08:33:45.443Z,40.53
2023-03-03T08:36:18.032Z,35.83
2023-03-03T08:38:48.267Z,38.10
2023-03-03T08:41:18.454Z,39.33
2023-03-03T08:43:48.928Z,35.47
2023-03-03T08:46:19.365Z,40.13
2023-03-03T08:48:49.729Z,31.50
2023-03-03T08:51:22.657Z,36.90
2023-03-03T08:53:52.829Z,34.37
2023-03-03T08:56:23.022Z,36.20
2023-03-03T08:59:02.149Z,35.10
2023-03-03T09:01:33.130Z,34.77
2023-03-03T09:04:03.605Z,35.70
2023-03-03T09:06:36.381Z,30.70
2023-03-03T09:09:06.674Z,37.00
2023-03-03T09:11:36.924Z,28.63
2023-03-03T09:14:13.873Z,29.75
2023-03-03T09:16:54.107Z,34.10
2023-03-03T09:19:27.556Z,27.65
2023-03-03T09:22:14.606Z,30.70
2023-03-03T09:24:45.593Z,27.97
2023-03-03T09:27:20.275Z,27.23
2023-03-03T09:29:50.651Z,27.92
2023-03-03T09:32:32.995Z,30.75
2023-03-03T09:35:03.437Z,32.13
2023-03-03T09:37:40.591Z,32.45
2023-03-03T09:40:35.460Z,29.77
2023-03-03T09:43:12.383Z,26.25
2023-03-03T09:46:02.022Z,28.80
2023-03-03T09:48:47.238Z,30.02
2023-03-03T09:51:36.109Z,24.58
2023-03-03T09:54:22.186Z,29.25
2023-03-03T09:56:59.173Z,28.25
2023-03-03T09:59:43.233Z,29.55
2023-03-03T10:02:32.978Z,24.92
2023-03-03T10:05:30.583Z,24.27
2023-03-03T10:08:24.679Z,23.92
2023-03-03T10:11:11.162Z,24.92
2023-03-03T10:13:46.775Z,24.55
2023-03-03T10:17:00.361Z,24.17
2023-03-03T10:19:36.817Z,22.52
2023-03-03T10:22:10.615Z,22.88
2023-03-03T10:24:47.879Z,23.65
2023-03-03T10:27:34.804Z,23.42
2023-03-03T10:30:10.848Z,22.73
2023-03-03T10:32:52.454Z,23.75
2023-03-03T10:35:35.844Z,24.35
2023-03-03T10:38:35.542Z,23.55
2023-03-03T10:41:18.990Z,22.17
2023-03-03T10:44:10.339Z,22.70
2023-03-03T10:47:03.877Z,23.35
2023-03-03T10:49:45.952Z,21.55
2023-03-03T10:52:30.511Z,20.88
2023-03-03T10:55:32.981Z,23.42
2023-03-03T10:58:26.213Z,19.40
2023-03-03T11:01:06.959Z,16.27
2023-03-03T11:03:58.873Z,23.25
2023-03-03T11:06:37.039Z,24.38
2023-03-03T11:09:16.558Z,22.67
2023-03-03T11:11:55.615Z,19.25
2023-03-03T11:14:27.869Z,21.48
2023-03-03T11:17:07.726Z,17.27
2023-03-03T11:19:52.729Z,21.02
2023-03-03T11:22:37.496Z,20.10
2023-03-03T11:25:17.503Z,18.73
2023-03-03T11:28:20.245Z,17.65
2023-03-03T11:31:05.410Z,20.98
2023-03-03T11:33:42.015Z,18.15
2023-03-03T11:36:16.854Z,17.23
2023-03-03T11:38:59.443Z,14.52
2023-03-03T11:41:34.208Z,19.52
2023-03-03T11:44:13.911Z,18.13
2023-03-03T11:46:46.212Z,18.88
2023-03-03T11:49:23.019Z,19.65
2023-03-03T11:52:04.541Z,19.48
2023-03-03T11:54:41.678Z,21.75
2023-03-03T11:57:21.054Z,20.88
2023-03-03T11:59:59.251Z,16.95
2023-03-03T12:02:53.806Z,19.25
2023-03-03T12:05:41.234Z,16.73
2023-03-03T12:08:23.565Z,18.30
2023-03-03T12:11:02.740Z,17.80
2023-03-03T12:13:42.355Z,16.10
2023-03-03T12:16:18.878Z,19.13
2023-03-03T12:18:55.921Z,16.65
2023-03-03T12:21:35.911Z,15.85
2023-03-03T12:24:25.577Z,16.95
2023-03-03T12:27:05.281Z,17.13
2023-03-03T12:29:51.250Z,17.02
2023-03-03T12:32:35.293Z,18.25
2023-03-03T12:35:12.242Z,17.85
2023-03-03T12:37:57.490Z,17.33
2023-03-03T12:40:32.146Z,18.55
2023-03-03T12:43:23.298Z,16.20
2023-03-03T12:46:02.372Z,17.33
2023-03-03T12:48:41.544Z,19.23
2023-03-03T12:51:32.160Z,16.90
2023-03-03T12:54:26.236Z,17.77
2023-03-03T12:56:58.150Z,16.85
2023-03-03T12:59:41.366Z,16.73
2023-03-03T13:02:41.021Z,15.38
2023-03-03T13:05:23.207Z,16.33
2023-03-03T13:08:06.419Z,15.00
2023-03-03T13:10:46.245Z,17.77
2023-03-03T13:13:20.854Z,15.45
2023-03-03T13:16:05.451Z,13.55
2023-03-03T13:18:55.376Z,15.10
2023-03-03T13:21:29.612Z,16.70
2023-03-03T13:24:10.648Z,15.15
2023-03-03T13:26:47.592Z,17.70
2023-03-03T13:29:23.146Z,14.30
2023-03-03T13:31:58.008Z,16.33
2023-03-03T13:34:39.961Z,16.42
2023-03-03T13:37:16.994Z,16.90
2023-03-03T13:39:57.834Z,14.55
2023-03-03T13:42:35.582Z,14.98
2023-03-03T13:45:15.341Z,14.52
2023-03-03T13:47:51.646Z,16.25
2023-03-03T13:50:28.948Z,15.70
2023-03-03T13:53:19.518Z,14.13
2023-03-03T13:55:56.492Z,14.80
2023-03-03T13:58:38.421Z,12.85
2023-03-03T14:01:17.452Z,12.50
2023-03-03T14:04:02.409Z,14.15
2023-03-03T14:06:33.532Z,10.52
2023-03-03T14:09:21.261Z,16.45
2023-03-03T14:11:59.193Z,11.30
2023-03-03T14:14:49.802Z,12.68
2023-03-03T14:17:29.592Z,14.63
2023-03-03T14:20:13.687Z,11.65
2023-03-03T14:22:49.169Z,12.88
2023-03-03T14:25:19.489Z,15.43
2023-03-03T14:28:04.330Z,12.00
2023-03-03T14:30:41.010Z,14.35
2023-03-03T14:33:27.082Z,13.90
2023-03-03T14:36:16.234Z,17.17
2023-03-03T14:38:51.907Z,16.27
2023-03-03T14:41:25.180Z,12.82
2023-03-03T14:44:02.910Z,15.48
2023-03-03T14:46:41.768Z,11.90
2023-03-03T14:49:19.570Z,29.88
2023-03-03T14:51:51.561Z,15.57
2023-03-03T14:54:29.873Z,12.52
2023-03-03T14:57:10.804Z,14.70
2023-03-03T14:59:42.032Z,13.93
2023-03-03T15:02:32.563Z,15.05
2023-03-03T15:05:25.316Z,12.75
2023-03-03T15:07:57.917Z,12.13
2023-03-03T15:10:37.339Z,13.02
2023-03-03T15:13:30.950Z,14.95
2023-03-03T15:16:13.916Z,12.93
2023-03-03T15:19:22.534Z,12.15
2023-03-03T15:21:59.881Z,16.90
2023-03-03T15:24:37.065Z,14.35
2023-03-03T15:27:13.608Z,12.57
2023-03-03T15:29:53.788Z,12.85
2023-03-03T15:32:31.149Z,10.35
2023-03-03T15:35:13.701Z,11.52
2023-03-03T15:37:50.482Z,15.35
2023-03-03T15:40:27.342Z,14.88
2023-03-03T15:43:05.748Z,14.02
2023-03-03T15:45:42.275Z,12.23
2023-03-03T15:48:31.055Z,12.70
2023-03-03T15:51:14.471Z,11.60
2023-03-03T15:54:09.314Z,15.73
2023-03-03T15:59:46.419Z,15.00
2023-03-03T16:02:21.927Z,12.02
2023-03-03T16:05:00.451Z,38.22
2023-03-03T16:07:48.611Z,27.92
2023-03-03T16:10:25.151Z,16.23
2023-03-03T16:13:05.676Z,14.32
2023-03-03T16:15:57.075Z,9.98
2023-03-03T16:18:35.940Z,12.98
2023-03-03T16:21:31.920Z,12.75
2023-03-03T16:24:18.737Z,13.73
2023-03-03T16:26:57.180Z,14.13
2023-03-03T16:29:38.259Z,13.27
2023-03-03T16:32:14.453Z,10.75
2023-03-03T16:34:57.664Z,11.63
2023-03-03T16:37:34.750Z,12.43
2023-03-03T16:40:17.370Z,11.18
2023-03-03T16:42:47.634Z,12.30
2023-03-03T16:45:27.124Z,13.05
2023-03-03T16:48:11.326Z,10.75
2023-03-03T16:50:47.665Z,10.07
2023-03-03T16:53:27.553Z,10.23
2023-03-03T16:56:07.996Z,10.35
2023-03-03T16:58:50.763Z,11.30
2023-03-03T17:01:30.698Z,9.65
2023-03-03T17:04:03.795Z,9.15
2023-03-03T17:06:46.212Z,11.55
2023-03-03T17:09:45.038Z,9.40
2023-03-03T17:12:42.143Z,10.68
2023-03-03T17:15:27.022Z,12.48
2023-03-03T17:20:39.733Z,12.85
2023-03-03T17:23:34.007Z,9.43
2023-03-03T17:26:26.803Z,14.20
2023-03-03T17:29:11.600Z,11.00
2023-03-03T17:34:30.412Z,11.40
2023-03-03T17:37:14.936Z,9.77
2023-03-03T17:40:15.242Z,11.70
2023-03-03T17:42:52.307Z,9.57
2023-03-03T17:45:30.845Z,8.82
2023-03-03T17:48:20.283Z,8.90
2023-03-03T17:51:38.292Z,10.27
2023-03-03T17:54:21.948Z,11.63
2023-03-03T17:57:00.661Z,10.48
2023-03-03T17:59:58.076Z,10.10
2023-03-03T18:02:45.936Z,12.48
2023-03-03T18:05:41.829Z,10.27
2023-03-03T18:08:27.353Z,10.60
2023-03-03T18:11:25.109Z,11.38
2023-03-03T18:14:22.481Z,12.57
2023-03-03T18:17:21.517Z,12.15
2023-03-03T18:20:11.330Z,11.35
2023-03-03T18:22:46.209Z,9.10
2023-03-03T18:25:18.437Z,10.43
2023-03-03T18:27:49.034Z,12.50
2023-03-03T18:30:27.642Z,13.90
2023-03-03T18:33:16.196Z,11.55
2023-03-03T18:35:51.191Z,14.55
2023-03-03T18:38:35.864Z,14.02
2023-03-03T18:41:08.054Z,10.93
2023-03-03T18:43:56.896Z,11.35
2023-03-03T18:46:50.247Z,11.82
2023-03-03T18:49:20.961Z,11.95
2023-03-03T18:52:18.997Z,15.05
2023-03-03T18:55:19.946Z,13.63
2023-03-03T18:58:29.959Z,9.80
2023-03-03T19:01:02.552Z,21.27
2023-03-03T19:03:37.911Z,16.63
2023-03-03T19:06:10.319Z,11.80
2023-03-03T19:08:57.975Z,10.98
2023-03-03T19:11:40.906Z,14.98
2023-03-03T19:14:35.220Z,18.08
2023-03-03T19:17:34.998Z,13.10
2023-03-03T19:20:12.382Z,17.92
2023-03-03T19:22:48.269Z,18.65
2023-03-03T19:25:26.977Z,18.65
2023-03-03T19:28:17.349Z,15.77
2023-03-03T19:30:58.864Z,19.27
2023-03-03T19:33:40.837Z,19.45
2023-03-03T19:36:21.745Z,20.13
2023-03-03T19:39:03.670Z,18.05
2023-03-03T19:41:55.948Z,18.90
2023-03-03T19:44:37.721Z,16.40
2023-03-03T19:47:11.363Z,15.05
2023-03-03T19:49:58.143Z,15.07
2023-03-03T19:52:36.689Z,13.15
2023-03-03T19:55:29.170Z,20.07
2023-03-03T19:58:14.204Z,13.13
2023-03-03T20:00:46.222Z,15.38
2023-03-03T20:03:43.964Z,11.75
2023-03-03T20:06:27.831Z,14.55
2023-03-03T20:09:04.762Z,14.77
2023-03-03T20:11:49.582Z,16.33
2023-03-03T20:17:30.760Z,26.33
2023-03-03T20:20:08.444Z,23.10
2023-03-03T20:22:48.065Z,28.23
2023-03-03T20:25:28.367Z,25.30
2023-03-03T20:28:06.578Z,16.57
2023-03-03T20:31:01.596Z,21.60
2023-03-03T20:33:48.271Z,16.23
2023-03-03T20:36:27.682Z,18.60
2023-03-03T20:39:11.479Z,11.10
2023-03-03T20:41:53.668Z,16.70
2023-03-03T20:44:33.918Z,18.13
2023-03-03T20:47:09.722Z,18.13
2023-03-03T20:50:01.851Z,19.27
2023-03-03T20:52:43.075Z,22.37
2023-03-03T20:55:22.086Z,23.63
2023-03-03T20:58:01.244Z,24.83
2023-03-03T21:00:37.196Z,18.40
2023-03-03T21:03:16.217Z,22.93
2023-03-03T21:06:01.206Z,13.33
2023-03-03T21:08:49.579Z,23.40
2023-03-03T21:11:21.475Z,19.53
2023-03-03T21:13:54.195Z,20.87
2023-03-03T21:16:35.818Z,15.80
2023-03-03T21:19:09.112Z,14.90
2023-03-03T21:21:45.206Z,17.33
2023-03-03T21:24:19.926Z,17.97
2023-03-03T21:26:52.763Z,18.77
2023-03-03T21:29:29.200Z,16.37
2023-03-03T21:32:00.787Z,17.53
2023-03-03T21:34:32.657Z,20.43
2023-03-03T21:37:09.799Z,20.10
2023-03-03T21:39:41.177Z,17.10
2023-03-03T21:42:14.456Z,15.27
2023-03-03T21:44:46.803Z,19.20
2023-03-03T21:47:18.710Z,15.10
2023-03-03T21:49:50.145Z,18.37
2023-03-03T21:52:24.935Z,18.43
2023-03-03T21:54:55.478Z,19.77
2023-03-03T21:57:25.903Z,20.80
2023-03-03T21:59:56.150Z,17.33
2023-03-03T22:02:26.354Z,15.83
2023-03-03T22:04:56.585Z,22.47
2023-03-03T22:07:29.064Z,18.83
2023-03-03T22:09:59.250Z,17.93
2023-03-03T22:12:29.546Z,19.13
2023-03-03T22:14:59.749Z,22.37
2023-03-03T22:17:30.352Z,18.10
2023-03-03T22:20:00.654Z,20.97
2023-03-03T22:22:33.456Z,18.83
2023-03-03T22:25:03.708Z,17.17
2023-03-03T22:27:34.718Z,17.10
2023-03-03T22:30:04.990Z,16.43
2023-03-03T22:32:35.256Z,18.37
2023-03-03T22:35:05.480Z,23.57
2023-03-03T22:37:38.294Z,18.70
2023-03-03T22:40:09.106Z,20.40
2023-03-03T22:42:39.392Z,20.27
2023-03-03T22:45:10.228Z,20.40
2023-03-03T22:47:40.659Z,16.13
2023-03-03T22:50:14.212Z,17.83
2023-03-03T22:52:47.023Z,15.93
2023-03-03T22:55:17.225Z,19.90
2023-03-03T22:57:47.424Z,21.63
2023-03-03T23:00:18.687Z,23.03
2023-03-03T23:02:49.019Z,22.53
2023-03-03T23:05:19.281Z,20.63
2023-03-03T23:07:51.944Z,22.90
2023-03-03T23:10:22.282Z,23.50
2023-03-03T23:12:52.477Z,29.57
2023-03-03T23:15:22.854Z,20.53
2023-03-03T23:17:53.019Z,19.57
2023-03-03T23:20:24.253Z,19.33
2023-03-03T23:22:56.998Z,21.47
2023-03-03T23:25:28.671Z,19.83
2023-03-03T23:28:00.467Z,20.50
2023-03-03T23:30:30.754Z,24.00
2023-03-03T23:33:00.972Z,22.13
2023-03-03T23:35:31.329Z,24.13
2023-03-03T23:38:03.884Z,25.10
2023-03-03T23:40:34.150Z,22.80
2023-03-03T23:43:04.294Z,18.03
2023-03-03T23:45:34.457Z,19.80
2023-03-03T23:48:10.025Z,23.60
2023-03-03T23:50:40.598Z,24.30
2023-03-03T23:53:13.398Z,20.77
2023-03-03T23:55:45.601Z,19.53
2023-03-03T23:58:15.781Z,18.03
